createdAt,value
2018-07-23T00:07:57.250Z,13
2018-07-23T00:17:56.486Z,13
2018-07-23T00:27:55.734Z,12.6
2018-07-23T00:37:54.975Z,12.6
2018-07-23T00:47:54.218Z,13.1
2018-07-23T00:57:53.463Z,12.9
2018-07-23T01:07:52.708Z,12.6
2018-07-23T01:17:51.949Z,13.1
2018-07-23T01:27:51.195Z,12.9
2018-07-23T01:37:50.436Z,13.1
2018-07-23T01:47:49.682Z,13.1
2018-07-23T01:57:48.925Z,13.1
2018-07-23T02:07:48.168Z,12.9
2018-07-23T02:17:47.419Z,13.2
2018-07-23T02:27:46.653Z,13.1
2018-07-23T02:37:45.899Z,12.5
2018-07-23T02:47:45.143Z,12.8
2018-07-23T02:57:44.385Z,12.7
2018-07-23T03:07:43.636Z,13
2018-07-23T03:17:42.876Z,12.5
2018-07-23T03:27:42.116Z,12.8
2018-07-23T03:37:41.353Z,12.6
2018-07-23T03:47:40.602Z,13.5
2018-07-23T03:57:39.837Z,13.8
2018-07-23T04:07:39.079Z,14.3
2018-07-23T04:17:38.327Z,14.6
2018-07-23T04:27:37.566Z,14.2
2018-07-23T04:37:36.808Z,14
2018-07-23T04:47:36.054Z,14.2
2018-07-23T04:57:35.301Z,13.9
2018-07-23T05:07:34.535Z,14.1
2018-07-23T05:17:33.777Z,13.9
2018-07-23T05:27:33.027Z,14.7
2018-07-23T05:37:32.272Z,14.5
2018-07-23T05:47:31.517Z,14
2018-07-23T05:57:30.755Z,14.3
2018-07-23T06:07:30.000Z,14.4
2018-07-23T06:17:29.243Z,14.4
2018-07-23T06:27:28.486Z,14.1
2018-07-23T06:37:27.804Z,13.9
2018-07-23T06:47:26.977Z,14.4
2018-07-23T06:57:26.287Z,14.1
2018-07-23T07:07:25.465Z,14.2
2018-07-23T07:17:24.708Z,14.6
2018-07-23T07:27:23.952Z,14
2018-07-23T07:37:23.198Z,14.1
2018-07-23T07:47:22.440Z,14.6
2018-07-23T07:57:21.689Z,14.4
2018-07-23T08:07:20.936Z,14.4
2018-07-23T08:17:20.179Z,14
2018-07-23T08:27:19.420Z,14.5
2018-07-23T08:37:18.669Z,14
2018-07-23T08:47:17.961Z,14.3
2018-07-23T08:57:17.199Z,13.9
2018-07-23T09:07:16.402Z,14.4
2018-07-23T09:17:15.661Z,13.8
2018-07-23T09:27:14.895Z,14.4
2018-07-23T09:37:14.173Z,14
2018-07-23T09:47:13.383Z,13.9
2018-07-23T09:57:12.677Z,12.6
2018-07-23T10:07:11.874Z,12.7
2018-07-23T10:17:11.129Z,13.3
2018-07-23T10:27:10.367Z,13
2018-07-23T10:37:09.614Z,12.8
2018-07-23T10:47:08.866Z,12.9
2018-07-23T10:57:08.116Z,13
2018-07-23T11:07:07.352Z,12.8
2018-07-23T11:17:06.597Z,13
2018-07-23T11:27:05.845Z,12.8
2018-07-23T11:37:05.093Z,12.8
2018-07-23T11:47:04.355Z,12.7
2018-07-23T11:57:03.638Z,12.7
2018-07-23T12:07:02.824Z,13.1
2018-07-23T12:17:02.075Z,12.6
2018-07-23T12:27:01.318Z,13
2018-07-23T12:37:00.559Z,13.2
2018-07-23T12:46:59.817Z,13.9
2018-07-23T12:56:59.054Z,13.7
2018-07-23T13:06:58.295Z,14
2018-07-23T13:16:57.539Z,13.6
2018-07-23T13:26:56.785Z,12.6
2018-07-23T13:36:56.032Z,13.2
2018-07-23T13:46:55.274Z,13.2
2018-07-23T13:56:54.517Z,13
2018-07-23T14:06:53.766Z,13.1
2018-07-23T14:16:53.008Z,12.6
2018-07-23T14:26:52.256Z,12.7
2018-07-23T14:36:51.499Z,12.8
2018-07-23T14:46:50.744Z,13.2
2018-07-23T14:56:49.992Z,13.1
2018-07-23T15:06:49.243Z,12.7
2018-07-23T15:16:48.481Z,13.1
2018-07-23T15:26:47.729Z,13.2
2018-07-23T15:36:46.976Z,13
2018-07-23T15:46:46.223Z,12.8
2018-07-23T15:56:45.468Z,13.1
2018-07-23T16:06:44.718Z,12.6
2018-07-23T16:16:43.958Z,12.7
2018-07-23T16:26:43.305Z,13.2
2018-07-23T16:36:42.453Z,13
2018-07-23T16:46:41.705Z,13.1
2018-07-23T16:56:40.942Z,12.9
2018-07-23T17:06:40.196Z,13
2018-07-23T17:16:39.437Z,12.7
2018-07-23T17:26:38.682Z,13.1
2018-07-23T17:36:37.928Z,13.1
2018-07-23T17:46:37.178Z,13.1
2018-07-23T17:56:36.429Z,12.4
2018-07-23T18:06:35.672Z,13
2018-07-23T18:16:34.919Z,13.1
2018-07-23T18:26:34.166Z,12.5
2018-07-23T18:36:33.415Z,12.5
2018-07-23T18:46:32.664Z,13
2018-07-23T18:56:31.911Z,12.9
2018-07-23T19:06:31.158Z,12.8
2018-07-23T19:16:30.400Z,12.6
2018-07-23T19:26:29.647Z,12.8
2018-07-23T19:36:28.898Z,13.1
2018-07-23T19:46:28.194Z,13.1
2018-07-23T19:56:27.387Z,12.8
2018-07-23T20:06:26.637Z,13.1
2018-07-23T20:16:25.883Z,12.8
2018-07-23T20:26:25.128Z,12.8
2018-07-23T20:36:24.374Z,12.8
2018-07-23T20:46:23.617Z,12.6
2018-07-23T20:56:22.863Z,13.1
2018-07-23T21:06:22.119Z,12.7
2018-07-23T21:16:21.354Z,12.5
2018-07-23T21:26:20.597Z,13
2018-07-23T21:36:19.843Z,13.2
2018-07-23T21:46:19.094Z,13
2018-07-23T21:56:18.332Z,13
2018-07-23T22:06:17.579Z,12.4
2018-07-23T22:16:16.821Z,13.1
2018-07-23T22:26:16.070Z,12.7
2018-07-23T22:36:15.310Z,12.9
2018-07-23T22:46:14.556Z,13.2
2018-07-23T22:56:13.797Z,12.6
2018-07-23T23:06:13.042Z,12.9
2018-07-23T23:16:12.286Z,12.6
2018-07-23T23:26:11.535Z,13
2018-07-23T23:36:10.775Z,13
2018-07-23T23:46:10.019Z,12.9
2018-07-23T23:56:09.264Z,13
